Flight Track Log - Related Links

Times and Time Zones

All times are in EDT time to prevent confusion due to time zone crossing. See the FLG4262 flight status page for this flight to view local times or setup timezone preferences in your user account.

Time Position Orientation Groundspeed Altitude Reporting Facility
EDT Latitude Longitude Course Direction KTS MPH feet Rate Location/Type
Tue 03:51:20 PM 42.1925 -83.3539 84° East 164 189 1,400  Level Cleveland Center
Tue 03:52:21 PM 42.1419 -83.3581 183° South 205 236 3,700 2,230 Climbing Cleveland Center
Tue 03:53:13 PM 42.1003 -83.3531 175° South 200 230 5,600 2,361 Climbing Cleveland Center
Tue 03:53:22 PM 42.0869 -83.3364 137° Southeast 242 278 6,100 1,935 Climbing Cleveland Center
Tue 03:54:15 PM 42.0681 -83.2658 110° East 266 306 7,600 2,066 Climbing Cleveland Center
Tue 03:54:23 PM 42.0736 -83.2358 76° East 285 328 8,200 2,476 Climbing Cleveland Center
Tue 03:55:00 PM 42.2334 -82.6120 94° East  Level Estimated
Tue 03:55:18 PM 42.1025 -83.1511 65° Northeast 289 333 10,200  Level Cleveland Center
Tue 03:56:00 PM 42.2457 -82.4646 84° East  Level FlightAware Approximate
Tue 03:56:20 PM 42.1425 -83.0464 63° Northeast 316 364 11,500  Level Cleveland Center
Tue 03:57:22 PM 42.1858 -82.9358 62° Northeast 334 384 13,000 1,548 Climbing Cleveland Center
Tue 03:58:24 PM 42.2306 -82.8189 63° Northeast 351 404 14,700 1,548 Climbing Cleveland Center
Tue 03:59:26 PM 42.2747 -82.7000 63° Northeast 356 410 16,200 1,597 Climbing Cleveland Center
Tue 04:00:28 PM 42.3278 -82.5572 63° Northeast 357 411 18,000 1,065 Climbing Cleveland Center
Tue 04:01:30 PM 42.3686 -82.4306 66° East 370 426 18,400 726 Climbing Cleveland Center
Tue 04:02:32 PM 42.3625 -82.2847 93° East 390 449 19,500 968 Climbing Cleveland Center
Tue 04:03:34 PM 42.3539 -82.1200 94° East 393 452 20,400 823 Climbing Cleveland Center
Tue 04:04:36 PM 42.3478 -81.9689 93° East 397 457 21,200 823 Climbing Cleveland Center
Tue 04:05:38 PM 42.3400 -81.8083 94° East 401 461 22,100 726 Climbing Cleveland Center
Tue 04:06:40 PM 42.3333 -81.6597 93° East 410 472 22,700 581 Climbing Cleveland Center
Tue 04:07:42 PM 42.3256 -81.5017 94° East 415 478 23,300 576 Climbing Cleveland Center
Tue 04:08:45 PM 42.3181 -81.3417 94° East 420 483 23,900 576 Climbing Cleveland Center
Tue 04:09:47 PM 42.3103 -81.1789 94° East 426 490 24,500 581 Climbing Cleveland Center
Tue 04:10:49 PM 42.3022 -81.0150 94° East 432 497 25,100 629 Climbing Cleveland Center
Tue 04:11:51 PM 42.2914 -80.8236 94° East 433 498 25,800 629 Climbing Cleveland Center
Tue 04:12:53 PM 42.2839 -80.6600 93° East 431 496 26,400 581 Climbing Cleveland Center
Tue 04:13:55 PM 42.2733 -80.4969 95° East 431 496 27,000 290 Climbing Cleveland Center
Tue 04:14:57 PM 42.2647 -80.3297 94° East 441 507 27,000  Level Cleveland Center
Tue 04:15:59 PM 42.2550 -80.1578 94° East 454 522 27,000 -145 Level Cleveland Center
Tue 04:17:01 PM 42.2436 -79.9756 95° East 464 534 26,700 -677 Descending Cleveland Center
Tue 04:18:03 PM 42.2331 -79.8058 95° East 473 544 25,600 -1,161 Descending Cleveland Center
Tue 04:19:05 PM 42.2194 -79.5869 95° East 487 560 24,300 -1,161 Descending Cleveland Center
Tue 04:20:07 PM 42.2078 -79.4092 95° East 480 552 23,200 -629 Descending Cleveland Center
Tue 04:21:09 PM 42.1956 -79.2383 95° East 463 533 23,000 -97 Descending Cleveland Center
Tue 04:22:11 PM 42.1903 -79.0650 92° East 463 533 23,000  Level Cleveland Center
Tue 04:23:14 PM 42.1925 -78.8867 89° East 454 522 23,000  Level Cleveland Center
Tue 04:24:16 PM 42.1964 -78.7161 88° East 455 524 23,000  Level Cleveland Center
Tue 04:25:18 PM 42.1981 -78.5456 89° East 458 527 23,000  Level Cleveland Center
Tue 04:26:20 PM 42.2008 -78.3431 89° East 454 522 23,000  Level Cleveland Center
Tue 04:27:22 PM 42.2036 -78.1750 89° East 452 520 23,000  Level Cleveland Center
Tue 04:28:24 PM 42.2064 -78.0078 89° East 451 519 23,000  Level Cleveland Center
Tue 04:29:26 PM 42.2067 -77.8397 90° East 453 521 23,000  Level Cleveland Center
Tue 04:30:28 PM 42.2089 -77.6717 89° East 454 522 23,000 -242 Level Cleveland Center
Tue 04:31:30 PM 42.2106 -77.4703 89° East 453 521 22,500 -726 Descending Cleveland Center
Tue 04:32:32 PM 42.2111 -77.3028 90° East 452 520 21,500 -968 Descending Cleveland Center
Tue 04:33:34 PM 42.2114 -77.1403 90° East 441 507 20,500 -1,021 Descending Cleveland Center
Tue 04:34:06 PM 42.2100 -77.0364 91° East 436 502 19,900 -1,109 Descending New York Center
Tue 04:35:06 PM 42.2161 -76.8803 87° East 436 502 18,800 -1,097 Descending New York Center
Tue 04:35:39 PM 42.2164 -76.8256 90° East 419 482 18,200 -1,389 Descending Cleveland Center
Tue 04:36:41 PM 42.2125 -76.6603 92° East 373 429 16,600 -1,597 Descending Cleveland Center
Tue 04:37:43 PM 42.2156 -76.5392 88° East 332 382 14,900 -1,935 Descending Cleveland Center
Tue 04:38:45 PM 42.2328 -76.4292 78° East 303 349 12,600 -2,855 Descending Cleveland Center
Tue 04:39:47 PM 42.2486 -76.3142 79° East 285 328 9,000 -3,242 Descending Cleveland Center
Tue 04:40:49 PM 42.2633 -76.2125 79° East 279 321 5,900 -2,323 Descending Cleveland Center
Tue 04:41:51 PM 42.2789 -76.1228 77° East 256 295 4,200 -1,161 Descending Cleveland Center
Tue 04:42:53 PM 42.2853 -76.0606 82° East 191 220 3,500 -800 Descending Cleveland Center
Tue 04:44:06 PM 42.2469 -76.0147 138° Southeast 150 173 2,400 -586 Descending New York Center
Tue 04:45:06 PM 42.2197 -75.9678 128° Southeast 135 155 2,200 -200 Descending New York Center

Login

Don't have an account? Register now (free) for customized features, flight alerts, and more!